sensor_id;sensor_type;location;lat;lon;timestamp;P1;durP1;ratioP1;P2;durP2;ratioP2
3975;SDS011;2002;48.812;9.180;2023-02-16T00:01:28;6.27;;;5.63;;
3975;SDS011;2002;48.812;9.180;2023-02-16T00:03:55;6.00;;;5.50;;
3975;SDS011;2002;48.812;9.180;2023-02-16T00:06:22;5.90;;;5.43;;
3975;SDS011;2002;48.812;9.180;2023-02-16T00:08:49;5.93;;;5.43;;
3975;SDS011;2002;48.812;9.180;2023-02-16T00:11:27;6.40;;;5.20;;
3975;SDS011;2002;48.812;9.180;2023-02-16T00:14:15;5.80;;;5.40;;
3975;SDS011;2002;48.812;9.180;2023-02-16T00:16:41;5.80;;;5.20;;
3975;SDS011;2002;48.812;9.180;2023-02-16T00:19:15;6.73;;;5.70;;
3975;SDS011;2002;48.812;9.180;2023-02-16T00:21:40;6.33;;;5.60;;
3975;SDS011;2002;48.812;9.180;2023-02-16T00:24:06;5.80;;;5.20;;
3975;SDS011;2002;48.812;9.180;2023-02-16T00:26:31;5.87;;;5.47;;
3975;SDS011;2002;48.812;9.180;2023-02-16T00:28:59;6.00;;;5.50;;
3975;SDS011;2002;48.812;9.180;2023-02-16T00:31:26;6.10;;;5.50;;
3975;SDS011;2002;48.812;9.180;2023-02-16T00:33:58;5.57;;;5.03;;
3975;SDS011;2002;48.812;9.180;2023-02-16T00:36:37;6.73;;;6.13;;
3975;SDS011;2002;48.812;9.180;2023-02-16T00:39:03;6.03;;;5.50;;
3975;SDS011;2002;48.812;9.180;2023-02-16T00:41:28;5.50;;;5.00;;
3975;SDS011;2002;48.812;9.180;2023-02-16T00:44:14;5.40;;;5.00;;
3975;SDS011;2002;48.812;9.180;2023-02-16T00:46:42;7.43;;;6.83;;
3975;SDS011;2002;48.812;9.180;2023-02-16T00:49:18;6.00;;;5.50;;
3975;SDS011;2002;48.812;9.180;2023-02-16T00:51:45;5.73;;;5.33;;
3975;SDS011;2002;48.812;9.180;2023-02-16T00:54:11;5.40;;;4.90;;
3975;SDS011;2002;48.812;9.180;2023-02-16T00:56:37;5.97;;;5.47;;
3975;SDS011;2002;48.812;9.180;2023-02-16T00:59:04;6.40;;;5.90;;
3975;SDS011;2002;48.812;9.180;2023-02-16T01:01:33;6.47;;;5.87;;
3975;SDS011;2002;48.812;9.180;2023-02-16T01:04:01;6.10;;;5.60;;
3975;SDS011;2002;48.812;9.180;2023-02-16T01:06:29;6.77;;;6.07;;
3975;SDS011;2002;48.812;9.180;2023-02-16T01:09:14;6.00;;;5.40;;
3975;SDS011;2002;48.812;9.180;2023-02-16T01:11:59;6.00;;;5.50;;
3975;SDS011;2002;48.812;9.180;2023-02-16T01:14:28;6.60;;;6.00;;
3975;SDS011;2002;48.812;9.180;2023-02-16T01:16:55;5.73;;;5.23;;
3975;SDS011;2002;48.812;9.180;2023-02-16T01:19:21;6.10;;;5.60;;
3975;SDS011;2002;48.812;9.180;2023-02-16T01:21:46;6.00;;;5.50;;
3975;SDS011;2002;48.812;9.180;2023-02-16T01:24:12;5.93;;;5.43;;
3975;SDS011;2002;48.812;9.180;2023-02-16T01:26:39;6.20;;;5.57;;
3975;SDS011;2002;48.812;9.180;2023-02-16T01:29:06;5.83;;;5.43;;
3975;SDS011;2002;48.812;9.180;2023-02-16T01:31:38;6.23;;;5.23;;
3975;SDS011;2002;48.812;9.180;2023-02-16T01:34:04;6.10;;;5.60;;
3975;SDS011;2002;48.812;9.180;2023-02-16T01:36:33;6.13;;;5.63;;
3975;SDS011;2002;48.812;9.180;2023-02-16T01:39:02;6.23;;;5.40;;
3975;SDS011;2002;48.812;9.180;2023-02-16T01:42:17;6.53;;;5.93;;
3975;SDS011;2002;48.812;9.180;2023-02-16T01:44:26;6.60;;;6.00;;
3975;SDS011;2002;48.812;9.180;2023-02-16T01:49:53;7.63;;;6.20;;
3975;SDS011;2002;48.812;9.180;2023-02-16T01:52:27;5.77;;;5.13;;
3975;SDS011;2002;48.812;9.180;2023-02-16T01:57:45;6.33;;;5.57;;
3975;SDS011;2002;48.812;9.180;2023-02-16T02:01:05;6.03;;;5.53;;
3975;SDS011;2002;48.812;9.180;2023-02-16T02:03:15;5.83;;;5.33;;
3975;SDS011;2002;48.812;9.180;2023-02-16T02:06:08;6.40;;;5.30;;
3975;SDS011;2002;48.812;9.180;2023-02-16T02:08:41;7.40;;;6.77;;
3975;SDS011;2002;48.812;9.180;2023-02-16T02:11:21;5.70;;;5.20;;
3975;SDS011;2002;48.812;9.180;2023-02-16T02:14:06;6.17;;;5.60;;
3975;SDS011;2002;48.812;9.180;2023-02-16T02:16:56;6.37;;;5.40;;
3975;SDS011;2002;48.812;9.180;2023-02-16T02:19:24;6.07;;;5.47;;
3975;SDS011;2002;48.812;9.180;2023-02-16T02:22:10;6.13;;;5.60;;
3975;SDS011;2002;48.812;9.180;2023-02-16T02:28:14;7.33;;;6.73;;
3975;SDS011;2002;48.812;9.180;2023-02-16T02:31:16;5.80;;;5.23;;
3975;SDS011;2002;48.812;9.180;2023-02-16T02:36:49;5.57;;;5.10;;
3975;SDS011;2002;48.812;9.180;2023-02-16T02:39:34;6.43;;;5.83;;
3975;SDS011;2002;48.812;9.180;2023-02-16T02:42:31;5.67;;;5.13;;
3975;SDS011;2002;48.812;9.180;2023-02-16T02:45:11;5.90;;;5.30;;
3975;SDS011;2002;48.812;9.180;2023-02-16T02:47:43;7.30;;;5.40;;
3975;SDS011;2002;48.812;9.180;2023-02-16T02:51:12;5.90;;;5.40;;
3975;SDS011;2002;48.812;9.180;2023-02-16T02:53:08;5.30;;;4.90;;
3975;SDS011;2002;48.812;9.180;2023-02-16T02:55:37;6.10;;;5.60;;
3975;SDS011;2002;48.812;9.180;2023-02-16T02:58:28;5.73;;;5.23;;
3975;SDS011;2002;48.812;9.180;2023-02-16T03:01:17;6.07;;;5.50;;
3975;SDS011;2002;48.812;9.180;2023-02-16T03:03:50;6.20;;;5.60;;
3975;SDS011;2002;48.812;9.180;2023-02-16T03:06:26;6.17;;;5.60;;
3975;SDS011;2002;48.812;9.180;2023-02-16T03:09:06;5.80;;;5.30;;
3975;SDS011;2002;48.812;9.180;2023-02-16T03:11:35;5.43;;;5.00;;
3975;SDS011;2002;48.812;9.180;2023-02-16T03:16:53;6.30;;;5.73;;
3975;SDS011;2002;48.812;9.180;2023-02-16T03:19:40;6.37;;;5.80;;
3975;SDS011;2002;48.812;9.180;2023-02-16T03:22:26;5.87;;;5.37;;
3975;SDS011;2002;48.812;9.180;2023-02-16T03:25:12;5.63;;;5.13;;
3975;SDS011;2002;48.812;9.180;2023-02-16T03:27:57;5.90;;;5.13;;
3975;SDS011;2002;48.812;9.180;2023-02-16T03:30:42;5.83;;;5.33;;
3975;SDS011;2002;48.812;9.180;2023-02-16T03:33:10;6.57;;;5.90;;
3975;SDS011;2002;48.812;9.180;2023-02-16T03:35:36;6.53;;;5.93;;
3975;SDS011;2002;48.812;9.180;2023-02-16T03:38:02;5.73;;;5.23;;
3975;SDS011;2002;48.812;9.180;2023-02-16T03:40:28;6.27;;;5.30;;
3975;SDS011;2002;48.812;9.180;2023-02-16T03:42:58;6.10;;;5.60;;
3975;SDS011;2002;48.812;9.180;2023-02-16T03:45:26;5.37;;;4.87;;
3975;SDS011;2002;48.812;9.180;2023-02-16T03:47:52;6.10;;;5.60;;
3975;SDS011;2002;48.812;9.180;2023-02-16T03:50:18;5.93;;;5.33;;
3975;SDS011;2002;48.812;9.180;2023-02-16T03:52:44;6.23;;;5.70;;
3975;SDS011;2002;48.812;9.180;2023-02-16T03:55:10;5.97;;;5.47;;
3975;SDS011;2002;48.812;9.180;2023-02-16T03:57:35;6.33;;;5.83;;
3975;SDS011;2002;48.812;9.180;2023-02-16T04:00:01;7.10;;;6.40;;
3975;SDS011;2002;48.812;9.180;2023-02-16T04:02:27;5.33;;;4.93;;
3975;SDS011;2002;48.812;9.180;2023-02-16T04:04:53;5.40;;;4.90;;
3975;SDS011;2002;48.812;9.180;2023-02-16T04:07:18;6.20;;;5.70;;
3975;SDS011;2002;48.812;9.180;2023-02-16T04:09:44;5.97;;;5.47;;
3975;SDS011;2002;48.812;9.180;2023-02-16T04:12:12;6.03;;;5.43;;
3975;SDS011;2002;48.812;9.180;2023-02-16T04:14:57;5.80;;;5.20;;
3975;SDS011;2002;48.812;9.180;2023-02-16T04:17:23;7.90;;;7.10;;
3975;SDS011;2002;48.812;9.180;2023-02-16T04:19:48;5.67;;;5.13;;
3975;SDS011;2002;48.812;9.180;2023-02-16T04:22:14;5.87;;;5.37;;
3975;SDS011;2002;48.812;9.180;2023-02-16T04:24:39;6.20;;;5.60;;
3975;SDS011;2002;48.812;9.180;2023-02-16T04:27:05;5.83;;;5.33;;
3975;SDS011;2002;48.812;9.180;2023-02-16T04:29:31;5.80;;;5.30;;
3975;SDS011;2002;48.812;9.180;2023-02-16T04:31:56;6.00;;;5.50;;
3975;SDS011;2002;48.812;9.180;2023-02-16T04:34:22;5.80;;;5.30;;
3975;SDS011;2002;48.812;9.180;2023-02-16T04:36:47;5.67;;;5.17;;
3975;SDS011;2002;48.812;9.180;2023-02-16T04:39:13;5.30;;;4.90;;
3975;SDS011;2002;48.812;9.180;2023-02-16T04:41:38;7.63;;;7.03;;
3975;SDS011;2002;48.812;9.180;2023-02-16T04:44:04;6.00;;;5.60;;
3975;SDS011;2002;48.812;9.180;2023-02-16T04:46:30;6.40;;;5.80;;
3975;SDS011;2002;48.812;9.180;2023-02-16T04:48:55;5.47;;;4.97;;
3975;SDS011;2002;48.812;9.180;2023-02-16T04:51:21;6.37;;;5.87;;
3975;SDS011;2002;48.812;9.180;2023-02-16T04:53:47;5.93;;;5.37;;
3975;SDS011;2002;48.812;9.180;2023-02-16T04:56:13;6.93;;;6.30;;
3975;SDS011;2002;48.812;9.180;2023-02-16T04:58:38;5.53;;;5.10;;
3975;SDS011;2002;48.812;9.180;2023-02-16T05:01:04;5.80;;;5.30;;
3975;SDS011;2002;48.812;9.180;2023-02-16T05:03:30;6.03;;;5.40;;
3975;SDS011;2002;48.812;9.180;2023-02-16T05:05:56;6.50;;;5.90;;
3975;SDS011;2002;48.812;9.180;2023-02-16T05:08:22;5.50;;;5.00;;
3975;SDS011;2002;48.812;9.180;2023-02-16T05:10:47;6.13;;;5.63;;
3975;SDS011;2002;48.812;9.180;2023-02-16T05:13:33;6.17;;;5.70;;
3975;SDS011;2002;48.812;9.180;2023-02-16T05:16:19;6.93;;;6.23;;
3975;SDS011;2002;48.812;9.180;2023-02-16T05:18:46;6.07;;;5.57;;
3975;SDS011;2002;48.812;9.180;2023-02-16T05:21:11;5.70;;;5.20;;
3975;SDS011;2002;48.812;9.180;2023-02-16T05:24:02;5.50;;;5.10;;
3975;SDS011;2002;48.812;9.180;2023-02-16T05:26:29;6.63;;;5.97;;
3975;SDS011;2002;48.812;9.180;2023-02-16T05:28:56;6.57;;;5.70;;
3975;SDS011;2002;48.812;9.180;2023-02-16T05:31:22;5.90;;;5.50;;
3975;SDS011;2002;48.812;9.180;2023-02-16T05:33:48;5.73;;;5.23;;
3975;SDS011;2002;48.812;9.180;2023-02-16T05:36:14;6.50;;;5.57;;
3975;SDS011;2002;48.812;9.180;2023-02-16T05:38:40;6.80;;;6.30;;
3975;SDS011;2002;48.812;9.180;2023-02-16T05:41:05;7.17;;;5.50;;
3975;SDS011;2002;48.812;9.180;2023-02-16T05:43:31;6.13;;;5.53;;
3975;SDS011;2002;48.812;9.180;2023-02-16T05:45:56;6.47;;;5.83;;
3975;SDS011;2002;48.812;9.180;2023-02-16T05:48:22;5.30;;;4.90;;
3975;SDS011;2002;48.812;9.180;2023-02-16T05:50:48;5.80;;;5.20;;
3975;SDS011;2002;48.812;9.180;2023-02-16T05:53:13;6.60;;;6.00;;
3975;SDS011;2002;48.812;9.180;2023-02-16T05:55:39;6.47;;;5.87;;
3975;SDS011;2002;48.812;9.180;2023-02-16T05:58:05;5.57;;;5.17;;
3975;SDS011;2002;48.812;9.180;2023-02-16T06:00:31;5.40;;;5.00;;
3975;SDS011;2002;48.812;9.180;2023-02-16T06:02:58;5.57;;;4.93;;
3975;SDS011;2002;48.812;9.180;2023-02-16T06:05:24;6.37;;;5.53;;
3975;SDS011;2002;48.812;9.180;2023-02-16T06:07:50;6.10;;;5.60;;
3975;SDS011;2002;48.812;9.180;2023-02-16T06:10:16;6.40;;;5.90;;
3975;SDS011;2002;48.812;9.180;2023-02-16T06:12:42;6.70;;;5.77;;
3975;SDS011;2002;48.812;9.180;2023-02-16T06:15:08;5.70;;;5.27;;
3975;SDS011;2002;48.812;9.180;2023-02-16T06:17:34;6.43;;;5.83;;
3975;SDS011;2002;48.812;9.180;2023-02-16T06:19:59;5.63;;;5.13;;
3975;SDS011;2002;48.812;9.180;2023-02-16T06:22:25;6.23;;;5.73;;
3975;SDS011;2002;48.812;9.180;2023-02-16T06:24:51;6.40;;;5.80;;
3975;SDS011;2002;48.812;9.180;2023-02-16T06:27:16;5.70;;;5.20;;
3975;SDS011;2002;48.812;9.180;2023-02-16T06:29:42;6.10;;;5.60;;
3975;SDS011;2002;48.812;9.180;2023-02-16T06:32:07;6.83;;;6.13;;
3975;SDS011;2002;48.812;9.180;2023-02-16T06:34:33;6.23;;;5.73;;
3975;SDS011;2002;48.812;9.180;2023-02-16T06:36:58;6.30;;;5.70;;
3975;SDS011;2002;48.812;9.180;2023-02-16T06:39:24;5.33;;;4.90;;
3975;SDS011;2002;48.812;9.180;2023-02-16T06:41:50;6.03;;;5.43;;
3975;SDS011;2002;48.812;9.180;2023-02-16T06:44:15;5.50;;;5.10;;
3975;SDS011;2002;48.812;9.180;2023-02-16T06:46:42;6.20;;;5.63;;
3975;SDS011;2002;48.812;9.180;2023-02-16T06:49:12;6.53;;;5.93;;
3975;SDS011;2002;48.812;9.180;2023-02-16T06:51:40;6.20;;;5.33;;
3975;SDS011;2002;48.812;9.180;2023-02-16T06:54:06;5.60;;;5.10;;
3975;SDS011;2002;48.812;9.180;2023-02-16T06:56:32;5.30;;;4.80;;
3975;SDS011;2002;48.812;9.180;2023-02-16T06:58:57;5.80;;;5.30;;
3975;SDS011;2002;48.812;9.180;2023-02-16T07:01:23;5.70;;;5.20;;
3975;SDS011;2002;48.812;9.180;2023-02-16T07:03:50;5.83;;;5.33;;
3975;SDS011;2002;48.812;9.180;2023-02-16T07:06:16;5.50;;;5.00;;
3975;SDS011;2002;48.812;9.180;2023-02-16T07:08:43;6.07;;;5.50;;
3975;SDS011;2002;48.812;9.180;2023-02-16T07:11:08;5.40;;;5.00;;
3975;SDS011;2002;48.812;9.180;2023-02-16T07:13:34;5.63;;;5.13;;
3975;SDS011;2002;48.812;9.180;2023-02-16T07:16:01;5.57;;;5.07;;
3975;SDS011;2002;48.812;9.180;2023-02-16T07:18:28;5.40;;;5.00;;
3975;SDS011;2002;48.812;9.180;2023-02-16T07:20:53;5.87;;;5.27;;
3975;SDS011;2002;48.812;9.180;2023-02-16T07:23:19;6.03;;;5.50;;
3975;SDS011;2002;48.812;9.180;2023-02-16T07:25:45;6.33;;;5.57;;
3975;SDS011;2002;48.812;9.180;2023-02-16T07:28:11;5.87;;;5.30;;
3975;SDS011;2002;48.812;9.180;2023-02-16T07:30:37;6.20;;;5.67;;
3975;SDS011;2002;48.812;9.180;2023-02-16T07:33:03;6.70;;;6.20;;
3975;SDS011;2002;48.812;9.180;2023-02-16T07:35:30;5.57;;;5.17;;
3975;SDS011;2002;48.812;9.180;2023-02-16T07:37:57;6.17;;;5.67;;
3975;SDS011;2002;48.812;9.180;2023-02-16T07:40:22;6.37;;;5.80;;
3975;SDS011;2002;48.812;9.180;2023-02-16T07:42:48;5.97;;;5.10;;
3975;SDS011;2002;48.812;9.180;2023-02-16T07:45:14;5.80;;;5.23;;
3975;SDS011;2002;48.812;9.180;2023-02-16T07:47:39;6.73;;;5.23;;
3975;SDS011;2002;48.812;9.180;2023-02-16T07:50:05;6.00;;;5.50;;
3975;SDS011;2002;48.812;9.180;2023-02-16T07:52:32;6.60;;;6.00;;
3975;SDS011;2002;48.812;9.180;2023-02-16T07:54:58;5.87;;;5.30;;
3975;SDS011;2002;48.812;9.180;2023-02-16T07:57:25;6.13;;;5.53;;
3975;SDS011;2002;48.812;9.180;2023-02-16T07:59:51;5.70;;;5.27;;
3975;SDS011;2002;48.812;9.180;2023-02-16T08:02:17;5.90;;;5.40;;
3975;SDS011;2002;48.812;9.180;2023-02-16T08:04:44;6.60;;;5.97;;
3975;SDS011;2002;48.812;9.180;2023-02-16T08:07:11;5.53;;;5.03;;
3975;SDS011;2002;48.812;9.180;2023-02-16T08:09:37;6.47;;;5.77;;
3975;SDS011;2002;48.812;9.180;2023-02-16T08:12:03;5.40;;;4.90;;
3975;SDS011;2002;48.812;9.180;2023-02-16T08:14:31;6.10;;;5.63;;
3975;SDS011;2002;48.812;9.180;2023-02-16T08:16:57;5.70;;;5.30;;
3975;SDS011;2002;48.812;9.180;2023-02-16T08:19:22;6.10;;;5.60;;
3975;SDS011;2002;48.812;9.180;2023-02-16T08:21:48;5.00;;;4.60;;
3975;SDS011;2002;48.812;9.180;2023-02-16T08:24:15;5.20;;;4.80;;
3975;SDS011;2002;48.812;9.180;2023-02-16T08:26:41;6.53;;;5.53;;
3975;SDS011;2002;48.812;9.180;2023-02-16T08:29:08;6.13;;;4.83;;
3975;SDS011;2002;48.812;9.180;2023-02-16T08:31:36;5.60;;;5.13;;
3975;SDS011;2002;48.812;9.180;2023-02-16T08:34:02;5.80;;;5.20;;
3975;SDS011;2002;48.812;9.180;2023-02-16T08:36:30;5.40;;;5.00;;
3975;SDS011;2002;48.812;9.180;2023-02-16T08:38:58;5.77;;;5.27;;
3975;SDS011;2002;48.812;9.180;2023-02-16T08:41:32;5.57;;;5.07;;
3975;SDS011;2002;48.812;9.180;2023-02-16T08:43:59;5.93;;;5.30;;
3975;SDS011;2002;48.812;9.180;2023-02-16T08:46:26;5.73;;;5.23;;
3975;SDS011;2002;48.812;9.180;2023-02-16T08:48:54;7.57;;;6.17;;
3975;SDS011;2002;48.812;9.180;2023-02-16T08:51:23;5.40;;;5.00;;
3975;SDS011;2002;48.812;9.180;2023-02-16T08:53:49;5.67;;;5.00;;
3975;SDS011;2002;48.812;9.180;2023-02-16T08:56:16;6.17;;;5.67;;
3975;SDS011;2002;48.812;9.180;2023-02-16T08:58:42;5.50;;;5.00;;
3975;SDS011;2002;48.812;9.180;2023-02-16T09:01:08;5.00;;;4.60;;
3975;SDS011;2002;48.812;9.180;2023-02-16T09:03:36;6.17;;;5.57;;
3975;SDS011;2002;48.812;9.180;2023-02-16T09:06:03;5.57;;;5.10;;
3975;SDS011;2002;48.812;9.180;2023-02-16T09:08:30;5.17;;;4.70;;
3975;SDS011;2002;48.812;9.180;2023-02-16T09:11:01;5.40;;;4.90;;
3975;SDS011;2002;48.812;9.180;2023-02-16T09:13:29;5.27;;;4.77;;
3975;SDS011;2002;48.812;9.180;2023-02-16T09:15:59;5.53;;;4.97;;
3975;SDS011;2002;48.812;9.180;2023-02-16T09:18:29;5.47;;;5.03;;
3975;SDS011;2002;48.812;9.180;2023-02-16T09:20:56;7.07;;;5.87;;
3975;SDS011;2002;48.812;9.180;2023-02-16T09:23:26;6.97;;;6.27;;
3975;SDS011;2002;48.812;9.180;2023-02-16T09:25:52;5.43;;;5.03;;
3975;SDS011;2002;48.812;9.180;2023-02-16T09:28:18;5.70;;;5.20;;
3975;SDS011;2002;48.812;9.180;2023-02-16T09:30:44;5.63;;;5.13;;
3975;SDS011;2002;48.812;9.180;2023-02-16T09:33:10;5.83;;;5.40;;
3975;SDS011;2002;48.812;9.180;2023-02-16T09:35:37;4.97;;;4.60;;
3975;SDS011;2002;48.812;9.180;2023-02-16T09:38:03;6.37;;;5.83;;
3975;SDS011;2002;48.812;9.180;2023-02-16T09:40:29;5.27;;;4.77;;
3975;SDS011;2002;48.812;9.180;2023-02-16T09:43:17;6.00;;;5.40;;
3975;SDS011;2002;48.812;9.180;2023-02-16T09:45:49;5.67;;;5.27;;
3975;SDS011;2002;48.812;9.180;2023-02-16T09:48:20;5.80;;;5.33;;
3975;SDS011;2002;48.812;9.180;2023-02-16T09:50:55;5.17;;;4.77;;
3975;SDS011;2002;48.812;9.180;2023-02-16T09:53:26;5.97;;;5.33;;
3975;SDS011;2002;48.812;9.180;2023-02-16T09:56:22;5.93;;;5.23;;
3975;SDS011;2002;48.812;9.180;2023-02-16T09:59:00;5.20;;;4.77;;
3975;SDS011;2002;48.812;9.180;2023-02-16T10:01:31;5.60;;;5.10;;
3975;SDS011;2002;48.812;9.180;2023-02-16T10:07:11;4.93;;;4.53;;
3975;SDS011;2002;48.812;9.180;2023-02-16T10:09:59;5.33;;;4.80;;
3975;SDS011;2002;48.812;9.180;2023-02-16T10:12:28;5.57;;;5.03;;
3975;SDS011;2002;48.812;9.180;2023-02-16T10:15:04;4.63;;;4.23;;
3975;SDS011;2002;48.812;9.180;2023-02-16T10:17:45;5.20;;;4.80;;
3975;SDS011;2002;48.812;9.180;2023-02-16T10:20:36;5.33;;;4.93;;
3975;SDS011;2002;48.812;9.180;2023-02-16T10:23:15;5.93;;;5.33;;
3975;SDS011;2002;48.812;9.180;2023-02-16T10:26:25;6.10;;;5.50;;
3975;SDS011;2002;48.812;9.180;2023-02-16T10:28:54;5.53;;;5.03;;
3975;SDS011;2002;48.812;9.180;2023-02-16T10:34:00;5.50;;;5.00;;
3975;SDS011;2002;48.812;9.180;2023-02-16T10:42:10;5.50;;;5.00;;
3975;SDS011;2002;48.812;9.180;2023-02-16T10:45:00;5.20;;;4.80;;
3975;SDS011;2002;48.812;9.180;2023-02-16T10:47:44;5.27;;;4.83;;
3975;SDS011;2002;48.812;9.180;2023-02-16T10:52:49;5.30;;;4.80;;
3975;SDS011;2002;48.812;9.180;2023-02-16T10:55:19;5.13;;;4.73;;
3975;SDS011;2002;48.812;9.180;2023-02-16T10:57:49;5.00;;;4.57;;
3975;SDS011;2002;48.812;9.180;2023-02-16T11:00:20;5.07;;;4.67;;
3975;SDS011;2002;48.812;9.180;2023-02-16T11:02:54;5.20;;;4.80;;
3975;SDS011;2002;48.812;9.180;2023-02-16T11:05:28;5.57;;;5.07;;
3975;SDS011;2002;48.812;9.180;2023-02-16T11:07:56;5.27;;;4.80;;
3975;SDS011;2002;48.812;9.180;2023-02-16T11:10:36;5.33;;;4.93;;
3975;SDS011;2002;48.812;9.180;2023-02-16T11:13:18;5.43;;;4.93;;
3975;SDS011;2002;48.812;9.180;2023-02-16T11:15:51;5.37;;;4.87;;
3975;SDS011;2002;48.812;9.180;2023-02-16T11:18:30;5.23;;;4.80;;
3975;SDS011;2002;48.812;9.180;2023-02-16T11:20:57;5.77;;;5.20;;
3975;SDS011;2002;48.812;9.180;2023-02-16T11:23:24;5.87;;;5.27;;
3975;SDS011;2002;48.812;9.180;2023-02-16T11:28:42;5.97;;;5.57;;
3975;SDS011;2002;48.812;9.180;2023-02-16T11:31:11;5.60;;;4.10;;
3975;SDS011;2002;48.812;9.180;2023-02-16T11:33:42;6.00;;;5.37;;
3975;SDS011;2002;48.812;9.180;2023-02-16T11:36:33;5.27;;;4.77;;
3975;SDS011;2002;48.812;9.180;2023-02-16T11:39:00;4.90;;;4.40;;
3975;SDS011;2002;48.812;9.180;2023-02-16T11:41:29;5.10;;;4.60;;
3975;SDS011;2002;48.812;9.180;2023-02-16T11:43:57;5.13;;;4.63;;
3975;SDS011;2002;48.812;9.180;2023-02-16T11:46:24;4.90;;;4.50;;
3975;SDS011;2002;48.812;9.180;2023-02-16T11:48:50;5.17;;;4.77;;
3975;SDS011;2002;48.812;9.180;2023-02-16T11:51:27;5.80;;;4.53;;
3975;SDS011;2002;48.812;9.180;2023-02-16T11:54:03;6.27;;;5.67;;
3975;SDS011;2002;48.812;9.180;2023-02-16T11:56:33;5.87;;;5.27;;
3975;SDS011;2002;48.812;9.180;2023-02-16T11:59:15;4.90;;;4.40;;
3975;SDS011;2002;48.812;9.180;2023-02-16T12:15:40;5.30;;;4.90;;
3975;SDS011;2002;48.812;9.180;2023-02-16T12:21:08;5.20;;;4.80;;
3975;SDS011;2002;48.812;9.180;2023-02-16T12:23:58;4.70;;;4.30;;
3975;SDS011;2002;48.812;9.180;2023-02-16T12:29:26;4.93;;;4.53;;
3975;SDS011;2002;48.812;9.180;2023-02-16T12:39:47;4.57;;;4.17;;
3975;SDS011;2002;48.812;9.180;2023-02-16T12:44:58;5.00;;;4.53;;
3975;SDS011;2002;48.812;9.180;2023-02-16T12:47:29;5.00;;;4.60;;
3975;SDS011;2002;48.812;9.180;2023-02-16T12:50:02;4.93;;;4.40;;
3975;SDS011;2002;48.812;9.180;2023-02-16T12:52:34;4.77;;;4.37;;
3975;SDS011;2002;48.812;9.180;2023-02-16T12:55:15;5.20;;;4.70;;
3975;SDS011;2002;48.812;9.180;2023-02-16T12:57:51;4.70;;;4.20;;
3975;SDS011;2002;48.812;9.180;2023-02-16T13:00:36;5.00;;;4.47;;
3975;SDS011;2002;48.812;9.180;2023-02-16T13:11:55;4.77;;;4.37;;
3975;SDS011;2002;48.812;9.180;2023-02-16T13:14:27;4.13;;;3.83;;
3975;SDS011;2002;48.812;9.180;2023-02-16T13:17:29;5.50;;;5.00;;
3975;SDS011;2002;48.812;9.180;2023-02-16T13:19:55;4.87;;;4.47;;
3975;SDS011;2002;48.812;9.180;2023-02-16T13:22:36;4.10;;;3.70;;
3975;SDS011;2002;48.812;9.180;2023-02-16T13:28:00;4.93;;;4.20;;
3975;SDS011;2002;48.812;9.180;2023-02-16T13:30:39;4.17;;;3.77;;
3975;SDS011;2002;48.812;9.180;2023-02-16T13:36:32;3.87;;;3.50;;
3975;SDS011;2002;48.812;9.180;2023-02-16T13:44:40;4.87;;;4.03;;
3975;SDS011;2002;48.812;9.180;2023-02-16T13:47:16;4.37;;;3.97;;
3975;SDS011;2002;48.812;9.180;2023-02-16T13:49:54;4.63;;;4.23;;
3975;SDS011;2002;48.812;9.180;2023-02-16T13:54:50;4.37;;;4.00;;
3975;SDS011;2002;48.812;9.180;2023-02-16T14:00:34;4.90;;;4.07;;
3975;SDS011;2002;48.812;9.180;2023-02-16T14:03:12;5.13;;;4.20;;
3975;SDS011;2002;48.812;9.180;2023-02-16T14:14:37;4.40;;;4.00;;
3975;SDS011;2002;48.812;9.180;2023-02-16T14:19:48;4.47;;;4.07;;
3975;SDS011;2002;48.812;9.180;2023-02-16T14:22:19;3.90;;;3.53;;
3975;SDS011;2002;48.812;9.180;2023-02-16T14:24:51;4.03;;;3.73;;
3975;SDS011;2002;48.812;9.180;2023-02-16T14:27:40;4.93;;;4.43;;
3975;SDS011;2002;48.812;9.180;2023-02-16T14:30:22;4.30;;;3.90;;
3975;SDS011;2002;48.812;9.180;2023-02-16T14:35:34;5.33;;;3.47;;
3975;SDS011;2002;48.812;9.180;2023-02-16T14:38:06;4.10;;;3.73;;
3975;SDS011;2002;48.812;9.180;2023-02-16T14:40:46;3.63;;;3.33;;
3975;SDS011;2002;48.812;9.180;2023-02-16T14:43:42;4.03;;;3.73;;
3975;SDS011;2002;48.812;9.180;2023-02-16T14:46:17;4.73;;;3.90;;
3975;SDS011;2002;48.812;9.180;2023-02-16T15:02:55;5.90;;;3.50;;
3975;SDS011;2002;48.812;9.180;2023-02-16T15:05:27;3.93;;;3.43;;
3975;SDS011;2002;48.812;9.180;2023-02-16T15:08:16;6.33;;;4.10;;
3975;SDS011;2002;48.812;9.180;2023-02-16T15:10:46;4.57;;;4.23;;
3975;SDS011;2002;48.812;9.180;2023-02-16T15:13:18;3.80;;;3.30;;
3975;SDS011;2002;48.812;9.180;2023-02-16T15:15:50;4.43;;;3.63;;
3975;SDS011;2002;48.812;9.180;2023-02-16T15:18:23;4.07;;;3.67;;
3975;SDS011;2002;48.812;9.180;2023-02-16T15:20:52;4.70;;;3.43;;
3975;SDS011;2002;48.812;9.180;2023-02-16T15:23:24;5.53;;;4.00;;
3975;SDS011;2002;48.812;9.180;2023-02-16T15:25:59;4.77;;;3.80;;
3975;SDS011;2002;48.812;9.180;2023-02-16T15:28:33;3.80;;;3.50;;
3975;SDS011;2002;48.812;9.180;2023-02-16T15:31:01;4.20;;;3.67;;
3975;SDS011;2002;48.812;9.180;2023-02-16T15:33:56;3.80;;;3.50;;
3975;SDS011;2002;48.812;9.180;2023-02-16T15:36:34;6.90;;;4.20;;
3975;SDS011;2002;48.812;9.180;2023-02-16T15:39:06;6.53;;;3.93;;
3975;SDS011;2002;48.812;9.180;2023-02-16T15:41:38;3.70;;;3.23;;
3975;SDS011;2002;48.812;9.180;2023-02-16T15:44:13;4.23;;;3.83;;
3975;SDS011;2002;48.812;9.180;2023-02-16T15:47:04;4.60;;;4.20;;
3975;SDS011;2002;48.812;9.180;2023-02-16T15:49:34;5.63;;;3.60;;
3975;SDS011;2002;48.812;9.180;2023-02-16T15:52:04;4.23;;;3.40;;
3975;SDS011;2002;48.812;9.180;2023-02-16T15:54:34;3.80;;;3.50;;
3975;SDS011;2002;48.812;9.180;2023-02-16T15:57:02;3.83;;;3.40;;
3975;SDS011;2002;48.812;9.180;2023-02-16T15:59:48;6.53;;;4.50;;
3975;SDS011;2002;48.812;9.180;2023-02-16T16:02:18;3.83;;;3.37;;
3975;SDS011;2002;48.812;9.180;2023-02-16T16:04:51;3.30;;;3.00;;
3975;SDS011;2002;48.812;9.180;2023-02-16T16:07:30;4.57;;;3.17;;
3975;SDS011;2002;48.812;9.180;2023-02-16T16:10:02;7.20;;;4.13;;
3975;SDS011;2002;48.812;9.180;2023-02-16T16:12:37;3.27;;;3.00;;
3975;SDS011;2002;48.812;9.180;2023-02-16T16:15:03;5.23;;;3.80;;
3975;SDS011;2002;48.812;9.180;2023-02-16T16:17:30;41.20;;;9.07;;
3975;SDS011;2002;48.812;9.180;2023-02-16T16:20:17;27.47;;;6.40;;
3975;SDS011;2002;48.812;9.180;2023-02-16T16:22:53;8.20;;;3.93;;
3975;SDS011;2002;48.812;9.180;2023-02-16T16:28:01;4.70;;;4.10;;
3975;SDS011;2002;48.812;9.180;2023-02-16T16:30:32;4.33;;;3.93;;
3975;SDS011;2002;48.812;9.180;2023-02-16T16:33:08;4.23;;;3.80;;
3975;SDS011;2002;48.812;9.180;2023-02-16T16:35:45;12.54;;;3.78;;
3975;SDS011;2002;48.812;9.180;2023-02-16T16:38:27;6.07;;;3.67;;
3975;SDS011;2002;48.812;9.180;2023-02-16T16:40:57;11.20;;;3.90;;
3975;SDS011;2002;48.812;9.180;2023-02-16T16:43:31;8.27;;;3.40;;
3975;SDS011;2002;48.812;9.180;2023-02-16T16:48:43;8.23;;;4.03;;
3975;SDS011;2002;48.812;9.180;2023-02-16T16:53:55;6.20;;;4.30;;
3975;SDS011;2002;48.812;9.180;2023-02-16T16:56:26;3.90;;;3.50;;
3975;SDS011;2002;48.812;9.180;2023-02-16T16:58:54;4.90;;;3.97;;
3975;SDS011;2002;48.812;9.180;2023-02-16T17:01:21;7.70;;;3.70;;
3975;SDS011;2002;48.812;9.180;2023-02-16T17:03:48;3.70;;;3.30;;
3975;SDS011;2002;48.812;9.180;2023-02-16T17:06:14;7.23;;;3.40;;
3975;SDS011;2002;48.812;9.180;2023-02-16T17:08:44;5.20;;;3.50;;
3975;SDS011;2002;48.812;9.180;2023-02-16T17:11:22;5.70;;;3.50;;
3975;SDS011;2002;48.812;9.180;2023-02-16T17:14:06;7.03;;;3.77;;
3975;SDS011;2002;48.812;9.180;2023-02-16T17:16:35;5.17;;;3.77;;
3975;SDS011;2002;48.812;9.180;2023-02-16T17:19:02;5.83;;;3.67;;
3975;SDS011;2002;48.812;9.180;2023-02-16T17:21:28;4.17;;;3.23;;
3975;SDS011;2002;48.812;9.180;2023-02-16T17:23:53;5.57;;;3.10;;
3975;SDS011;2002;48.812;9.180;2023-02-16T17:26:20;5.27;;;3.80;;
3975;SDS011;2002;48.812;9.180;2023-02-16T17:28:46;5.00;;;3.30;;
3975;SDS011;2002;48.812;9.180;2023-02-16T17:31:12;6.50;;;3.60;;
3975;SDS011;2002;48.812;9.180;2023-02-16T17:33:38;5.70;;;3.23;;
3975;SDS011;2002;48.812;9.180;2023-02-16T17:36:04;5.10;;;2.90;;
3975;SDS011;2002;48.812;9.180;2023-02-16T17:38:31;4.00;;;3.20;;
3975;SDS011;2002;48.812;9.180;2023-02-16T17:40:57;4.73;;;3.30;;
3975;SDS011;2002;48.812;9.180;2023-02-16T17:43:23;3.50;;;3.20;;
3975;SDS011;2002;48.812;9.180;2023-02-16T17:45:50;5.70;;;3.97;;